YAYE

Details ICAO YAYE (AYQ)
Name Ayers Rock
Region Australia
Timezone Australia/Darwin (UTC+9.5)
Plans Departing 96
Arriving 113
Stats Elevation 1,625 ft / 495 m (AMSL)
Location -25.185600° 130.977000°
Runways 1
Magnetic Variation 3.882° E
Sunrise 2018-10-19 20:38:59 UTC / 2018-10-20 06:08:59 Local
Sunset 2018-10-20 09:25:14 UTC / 2018-10-20 18:55:14 Local
Advertisement - Login to hide

Runways

ID Width Length Bearing (true/mag) Surface Threshold Overrun Markings Lighting
13 98 ft / 30 m 8,535 ft / 2,601 m 129.70° / 125.82° ASPHALT 0 ft / 0 m 0 ft / 0 m PREC-APP EDGE THRESHOLD ALSF-II
31 98 ft / 30 m 8,535 ft / 2,601 m 309.69° / 305.81° ASPHALT 0 ft / 0 m 0 ft / 0 m PREC-APP EDGE THRESHOLD ALSF-II

Map

Weather


0- 5 10 15 20 25 30 35+ Temperature / °C

Clouds and Precipitation
Forecast for 2018-10-20 06:00 UTC. Updated 3 hours ago

Ground ~20,000 ft ~40,000 ft Winds

METAR

YAYE 200600Z AUTO 10011KT 080V140 9999 // NCD 30/M01 Q1016

TAF

Not found

Frequencies

Unicom 126.90 MHz AYERS ROCK MULT
Recorded 126.55 MHz YAYE ATIS
Unicom 121.85 MHz MELBOURNE CENTRE MULT
Unicom 120.60 MHz ACTIVATE LIGHTS ONLY MULT
Warning: Do not use this data for real-world aviation or navigation. No guarantee of current accuracy is given.